createdAt,value
2018-04-14T00:01:59.608Z,1.10
2018-04-14T00:04:27.733Z,1.30
2018-04-14T00:06:55.236Z,1.67
2018-04-14T00:09:22.711Z,1.40
2018-04-14T00:11:50.212Z,1.13
2018-04-14T00:14:17.703Z,1.43
2018-04-14T00:16:45.210Z,1.40
2018-04-14T00:19:12.764Z,1.40
2018-04-14T00:21:40.242Z,1.70
2018-04-14T00:24:07.719Z,1.60
2018-04-14T00:26:35.194Z,1.20
2018-04-14T00:29:02.751Z,1.20
2018-04-14T00:31:30.261Z,1.10
2018-04-14T00:33:59.131Z,1.23
2018-04-14T00:36:26.578Z,1.20
2018-04-14T00:38:54.092Z,1.10
2018-04-14T00:41:21.578Z,1.27
2018-04-14T00:43:49.096Z,1.30
2018-04-14T00:46:16.644Z,1.47
2018-04-14T00:48:44.155Z,1.03
2018-04-14T00:51:11.622Z,1.50
2018-04-14T00:53:48.501Z,1.43
2018-04-14T00:56:16.006Z,1.30
2018-04-14T00:58:43.491Z,1.60
2018-04-14T01:01:11.018Z,1.10
2018-04-14T01:03:38.493Z,1.00
2018-04-14T01:06:05.945Z,1.27
2018-04-14T01:08:33.429Z,1.20
2018-04-14T01:11:00.906Z,0.90
2018-04-14T01:13:28.407Z,1.60
2018-04-14T01:15:55.902Z,1.73
2018-04-14T01:18:23.368Z,1.57
2018-04-14T01:20:50.888Z,1.77
2018-04-14T01:23:18.410Z,1.63
2018-04-14T01:25:45.906Z,1.47
2018-04-14T01:28:13.386Z,1.50
2018-04-14T01:30:40.854Z,1.40
2018-04-14T01:33:08.420Z,1.10
2018-04-14T01:35:35.943Z,1.23
2018-04-14T01:38:03.411Z,1.30
2018-04-14T01:40:30.912Z,1.50
2018-04-14T01:42:58.398Z,1.30
2018-04-14T01:45:25.885Z,1.80
2018-04-14T01:47:53.349Z,1.80
2018-04-14T01:50:20.814Z,1.20
2018-04-14T01:52:48.297Z,1.93
2018-04-14T01:55:15.761Z,1.33
2018-04-14T01:57:43.252Z,1.47
2018-04-14T02:00:10.747Z,1.97
2018-04-14T02:02:38.230Z,1.47
2018-04-14T02:05:05.761Z,1.60
2018-04-14T02:07:33.263Z,2.00
2018-04-14T02:10:00.755Z,1.43
2018-04-14T02:12:28.287Z,1.40
2018-04-14T02:14:55.782Z,1.57
2018-04-14T02:17:23.298Z,1.67
2018-04-14T02:19:50.950Z,1.90
2018-04-14T02:22:18.427Z,1.30
2018-04-14T02:24:45.900Z,1.50
2018-04-14T02:27:13.383Z,1.70
2018-04-14T02:29:40.851Z,1.30
2018-04-14T02:32:08.367Z,1.67
2018-04-14T02:34:35.888Z,2.20
2018-04-14T02:37:03.394Z,1.87
2018-04-14T02:39:30.873Z,1.73
2018-04-14T02:41:58.357Z,2.20
2018-04-14T02:44:25.870Z,2.20
2018-04-14T02:46:53.495Z,2.00
2018-04-14T02:49:20.951Z,1.47
2018-04-14T02:51:48.454Z,1.60
2018-04-14T02:54:15.924Z,1.77
2018-04-14T02:56:43.434Z,1.60
2018-04-14T02:59:10.960Z,1.60
2018-04-14T03:01:38.414Z,1.17
2018-04-14T03:04:05.914Z,1.53
2018-04-14T03:06:33.407Z,1.60
2018-04-14T03:09:00.887Z,1.70
2018-04-14T03:11:28.354Z,1.30
2018-04-14T03:13:55.840Z,1.30
2018-04-14T03:16:23.375Z,1.13
2018-04-14T03:18:50.848Z,1.80
2018-04-14T03:21:18.327Z,1.37
2018-04-14T03:23:45.801Z,1.80
2018-04-14T03:26:13.266Z,1.53
2018-04-14T03:28:40.733Z,1.57
2018-04-14T03:31:08.238Z,1.67
2018-04-14T03:33:35.742Z,1.83
2018-04-14T03:36:03.257Z,2.07
2018-04-14T03:38:30.734Z,1.73
2018-04-14T03:40:58.974Z,1.60
2018-04-14T03:43:26.473Z,2.20
2018-04-14T03:45:54.075Z,1.90
2018-04-14T03:48:21.536Z,2.00
2018-04-14T03:50:48.991Z,2.10
2018-04-14T03:53:16.468Z,1.60
2018-04-14T03:55:43.959Z,2.00
2018-04-14T03:58:11.468Z,1.50
2018-04-14T04:00:38.996Z,1.73
2018-04-14T04:03:06.468Z,1.50
2018-04-14T04:05:33.955Z,1.50
2018-04-14T04:08:01.416Z,1.40
2018-04-14T04:10:28.875Z,1.57
2018-04-14T04:12:56.332Z,1.90
2018-04-14T04:15:23.858Z,2.10
2018-04-14T04:17:51.323Z,2.53
2018-04-14T04:20:35.658Z,2.10
2018-04-14T04:23:14.774Z,1.97
2018-04-14T04:25:43.210Z,2.30
2018-04-14T04:28:10.725Z,2.10
2018-04-14T04:30:38.200Z,2.00
2018-04-14T04:33:05.656Z,1.90
2018-04-14T04:35:34.422Z,2.10
2018-04-14T04:38:01.935Z,2.47
2018-04-14T04:40:29.385Z,2.83
2018-04-14T04:42:56.887Z,2.10
2018-04-14T04:45:24.447Z,1.93
2018-04-14T04:47:51.930Z,3.30
2018-04-14T04:50:19.394Z,2.27
2018-04-14T04:52:46.860Z,2.10
2018-04-14T04:55:14.347Z,2.90
2018-04-14T04:57:43.135Z,2.27
2018-04-14T05:00:10.609Z,1.90
2018-04-14T05:02:38.110Z,2.03
2018-04-14T05:05:05.578Z,2.43
2018-04-14T05:07:33.098Z,2.40
2018-04-14T05:10:00.856Z,2.83
2018-04-14T05:12:29.574Z,2.87
2018-04-14T05:14:58.427Z,2.60
2018-04-14T05:17:25.912Z,2.70
2018-04-14T05:19:53.384Z,2.60
2018-04-14T05:22:20.851Z,3.37
2018-04-14T05:24:48.405Z,3.00
2018-04-14T05:27:15.874Z,2.63
2018-04-14T05:29:43.435Z,3.27
2018-04-14T05:32:10.930Z,3.00
2018-04-14T05:34:39.799Z,3.57
2018-04-14T05:37:07.288Z,2.77
2018-04-14T05:39:34.831Z,3.30
2018-04-14T05:42:02.414Z,3.53
2018-04-14T05:44:29.885Z,3.27
2018-04-14T05:46:57.432Z,3.40
2018-04-14T05:49:24.904Z,3.00
2018-04-14T05:51:52.395Z,2.97
2018-04-14T05:54:19.848Z,3.77
2018-04-14T05:56:47.340Z,3.10
2018-04-14T05:59:15.582Z,3.13
2018-04-14T06:01:43.057Z,3.50
2018-04-14T06:04:10.566Z,3.10
2018-04-14T06:06:38.109Z,2.73
2018-04-14T06:09:05.700Z,3.50
2018-04-14T06:11:33.672Z,2.90
2018-04-14T06:14:01.187Z,2.93
2018-04-14T06:16:28.713Z,3.30
2018-04-14T06:18:56.222Z,3.20
2018-04-14T06:21:23.717Z,3.37
2018-04-14T06:23:51.214Z,3.20
2018-04-14T06:26:18.740Z,2.90
2018-04-14T06:28:46.302Z,3.07
2018-04-14T06:31:13.839Z,3.00
2018-04-14T06:33:41.411Z,2.63
2018-04-14T06:36:08.885Z,2.47
2018-04-14T06:38:36.435Z,2.93
2018-04-14T06:41:03.939Z,2.47
2018-04-14T06:43:31.463Z,2.83
2018-04-14T06:45:58.949Z,2.53
2018-04-14T06:48:26.431Z,2.23
2018-04-14T06:50:53.969Z,2.80
2018-04-14T06:53:21.452Z,2.10
2018-04-14T06:55:49.456Z,2.30
2018-04-14T06:58:16.932Z,2.27
2018-04-14T07:00:44.508Z,2.20
2018-04-14T07:03:12.010Z,2.30
2018-04-14T07:05:39.546Z,2.70
2018-04-14T07:08:07.054Z,2.20
2018-04-14T07:10:35.424Z,2.20
2018-04-14T07:13:02.960Z,2.70
2018-04-14T07:15:30.459Z,2.07
2018-04-14T07:17:57.990Z,2.70
2018-04-14T07:20:25.534Z,2.20
2018-04-14T07:22:53.034Z,2.63
2018-04-14T07:25:20.615Z,2.40
2018-04-14T07:27:48.167Z,2.27
2018-04-14T07:30:15.662Z,2.30
2018-04-14T07:32:43.141Z,2.33
2018-04-14T07:35:10.783Z,2.20
2018-04-14T07:37:38.301Z,2.23
2018-04-14T07:40:05.845Z,2.60
2018-04-14T07:42:33.340Z,2.57
2018-04-14T07:45:00.853Z,2.60
2018-04-14T07:47:28.362Z,2.13
2018-04-14T07:49:55.837Z,2.23
2018-04-14T07:52:23.336Z,2.27
2018-04-14T07:54:50.856Z,2.13
2018-04-14T07:57:18.355Z,2.17
2018-04-14T07:59:45.855Z,2.17
2018-04-14T08:02:13.310Z,2.20
2018-04-14T08:04:40.870Z,2.33
2018-04-14T08:07:08.408Z,2.03
2018-04-14T08:09:35.898Z,1.90
2018-04-14T08:12:03.552Z,2.27
2018-04-14T08:14:31.074Z,2.07
2018-04-14T08:16:58.570Z,1.83
2018-04-14T08:19:26.072Z,1.53
2018-04-14T08:21:53.556Z,1.70
2018-04-14T08:24:21.063Z,1.87
2018-04-14T08:26:48.537Z,2.10
2018-04-14T08:29:15.994Z,1.70
2018-04-14T08:31:43.489Z,1.90
2018-04-14T08:34:11.057Z,1.90
2018-04-14T08:36:38.524Z,2.20
2018-04-14T08:39:06.096Z,3.07
2018-04-14T08:41:33.657Z,1.63
2018-04-14T08:44:01.152Z,1.93
2018-04-14T08:46:28.643Z,1.80
2018-04-14T08:48:56.149Z,1.70
2018-04-14T09:04:22.128Z,1.60
2018-04-14T09:06:50.905Z,1.80
2018-04-14T09:09:18.415Z,2.40
2018-04-14T09:11:45.915Z,1.70
2018-04-14T09:14:13.406Z,1.90
2018-04-14T09:16:40.914Z,1.87
2018-04-14T09:19:09.185Z,2.30
2018-04-14T09:21:36.678Z,2.23
2018-04-14T09:24:05.642Z,2.00
2018-04-14T09:26:33.144Z,1.60
2018-04-14T09:29:00.684Z,1.87
2018-04-14T09:31:28.250Z,1.90
2018-04-14T09:33:55.735Z,2.10
2018-04-14T09:36:23.208Z,1.73
2018-04-14T09:38:50.703Z,2.40
2018-04-14T09:41:18.181Z,1.87
2018-04-14T09:43:45.684Z,1.90
2018-04-14T09:46:13.186Z,2.10
2018-04-14T09:48:40.679Z,2.13
2018-04-14T09:51:08.159Z,2.20
2018-04-14T09:53:35.639Z,2.20
2018-04-14T09:56:03.131Z,2.40
2018-04-14T09:58:30.692Z,2.10
2018-04-14T10:01:02.043Z,2.00
2018-04-14T10:03:29.514Z,1.80
2018-04-14T10:05:57.088Z,1.80
2018-04-14T10:08:24.634Z,1.60
2018-04-14T10:10:52.183Z,1.80
2018-04-14T10:13:20.607Z,1.67
2018-04-14T10:15:48.122Z,1.43
2018-04-14T10:18:15.606Z,1.60
2018-04-14T10:20:43.083Z,1.33
2018-04-14T10:23:10.623Z,1.47
2018-04-14T10:25:38.134Z,1.97
2018-04-14T10:28:05.675Z,1.80
2018-04-14T10:30:33.223Z,1.37
2018-04-14T10:33:00.730Z,1.40
2018-04-14T10:35:28.278Z,1.90
2018-04-14T10:37:55.863Z,1.53
2018-04-14T10:40:23.278Z,1.80
2018-04-14T10:42:50.802Z,1.40
2018-04-14T10:45:18.300Z,1.60
2018-04-14T10:47:45.779Z,1.27
2018-04-14T10:50:13.287Z,1.33
2018-04-14T10:52:40.822Z,1.60
2018-04-14T10:55:08.309Z,1.63
2018-04-14T10:57:35.818Z,1.73
2018-04-14T11:00:03.327Z,1.50
2018-04-14T11:02:30.839Z,1.53
2018-04-14T11:04:58.361Z,1.20
2018-04-14T11:07:25.887Z,1.20
2018-04-14T11:09:53.465Z,0.70
2018-04-14T11:12:20.979Z,0.87
2018-04-14T11:14:48.562Z,0.80
2018-04-14T11:17:16.039Z,0.80
2018-04-14T11:19:43.531Z,0.90
2018-04-14T11:22:11.048Z,0.90
2018-04-14T11:24:38.531Z,0.90
2018-04-14T11:27:06.016Z,0.80
2018-04-14T11:29:33.499Z,1.10
2018-04-14T11:32:01.049Z,0.80
2018-04-14T11:34:28.567Z,1.20
2018-04-14T11:36:56.062Z,1.00
2018-04-14T11:39:29.434Z,1.00
2018-04-14T11:41:57.055Z,1.03
2018-04-14T11:44:24.568Z,1.10
2018-04-14T11:46:53.026Z,1.10
2018-04-14T11:49:20.555Z,1.50
2018-04-14T11:51:48.059Z,1.00
2018-04-14T11:54:18.628Z,1.23
2018-04-14T11:56:46.140Z,0.90
2018-04-14T11:59:13.647Z,1.10
2018-04-14T12:01:41.123Z,1.00
2018-04-14T12:04:08.710Z,0.93
2018-04-14T12:06:36.230Z,1.00
2018-04-14T12:09:03.868Z,0.97
2018-04-14T12:11:31.490Z,0.97
2018-04-14T12:13:59.043Z,0.70
2018-04-14T12:16:26.604Z,1.30
2018-04-14T12:18:54.102Z,0.90
2018-04-14T12:21:21.761Z,0.97
2018-04-14T12:23:49.251Z,0.70
2018-04-14T12:26:16.786Z,1.30
2018-04-14T12:28:44.271Z,0.97
2018-04-14T12:31:11.755Z,0.80
2018-04-14T12:33:39.522Z,0.60
2018-04-14T12:36:07.058Z,0.97
2018-04-14T12:38:34.561Z,0.90
2018-04-14T12:41:02.060Z,0.70
2018-04-14T12:43:30.230Z,0.60
2018-04-14T12:45:57.733Z,0.83
2018-04-14T12:48:25.207Z,0.80
2018-04-14T12:50:52.691Z,0.83
2018-04-14T12:53:20.200Z,1.00
2018-04-14T12:55:47.716Z,1.30
2018-04-14T12:58:15.186Z,0.77
2018-04-14T13:00:42.681Z,0.57
2018-04-14T13:03:10.199Z,0.60
2018-04-14T13:05:37.719Z,0.80
2018-04-14T13:08:05.219Z,0.73
2018-04-14T13:10:32.766Z,0.70
2018-04-14T13:13:00.249Z,0.90
2018-04-14T13:15:27.767Z,0.70
2018-04-14T13:17:55.284Z,1.00
2018-04-14T13:20:22.767Z,0.70
2018-04-14T13:22:50.248Z,1.17
2018-04-14T13:25:17.766Z,0.80
2018-04-14T13:27:45.298Z,1.07
2018-04-14T13:30:12.790Z,0.60
2018-04-14T13:32:40.284Z,0.60
2018-04-14T13:35:07.836Z,0.87
2018-04-14T13:37:35.401Z,0.60
2018-04-14T13:40:02.908Z,0.83
2018-04-14T13:42:30.414Z,0.93
2018-04-14T13:44:57.934Z,0.97
2018-04-14T13:47:25.449Z,0.90
2018-04-14T13:49:52.938Z,1.10
2018-04-14T13:52:20.455Z,0.80
2018-04-14T13:54:47.964Z,0.80
2018-04-14T13:57:15.521Z,1.00
2018-04-14T13:59:43.017Z,0.97
2018-04-14T14:02:10.500Z,1.13
2018-04-14T14:04:37.970Z,1.00
2018-04-14T14:07:05.480Z,0.80
2018-04-14T14:09:32.975Z,0.90
2018-04-14T14:12:00.466Z,1.10
2018-04-14T14:14:27.964Z,0.90
2018-04-14T14:16:55.466Z,1.00
2018-04-14T14:19:22.946Z,1.07
2018-04-14T14:21:50.458Z,0.70
2018-04-14T14:24:17.936Z,0.87
2018-04-14T14:26:45.418Z,0.97
2018-04-14T14:29:12.982Z,1.30
2018-04-14T14:31:40.469Z,1.17
2018-04-14T14:34:07.979Z,1.20
2018-04-14T14:36:35.491Z,1.83
2018-04-14T14:39:03.132Z,0.93
2018-04-14T14:41:30.692Z,0.90
2018-04-14T14:43:58.211Z,1.23
2018-04-14T14:46:25.708Z,1.40
2018-04-14T14:48:53.277Z,1.43
2018-04-14T14:51:20.779Z,1.30
2018-04-14T14:53:48.332Z,1.30
2018-04-14T14:56:15.824Z,1.17
2018-04-14T14:58:43.323Z,1.40
2018-04-14T15:01:10.844Z,1.03
2018-04-14T15:03:38.930Z,1.00
2018-04-14T15:06:06.410Z,1.00
2018-04-14T15:08:33.949Z,1.00
2018-04-14T15:11:01.446Z,1.27
2018-04-14T15:13:29.631Z,1.00
2018-04-14T15:15:57.162Z,1.07
2018-04-14T15:18:24.648Z,0.80
2018-04-14T15:20:52.147Z,1.17
2018-04-14T15:23:19.636Z,0.93
2018-04-14T15:25:47.122Z,1.00
2018-04-14T15:28:14.630Z,0.70
2018-04-14T15:30:42.173Z,1.20
2018-04-14T15:33:09.651Z,1.17
2018-04-14T15:35:37.191Z,0.80
2018-04-14T15:38:04.658Z,1.12
2018-04-14T15:40:32.158Z,1.23
2018-04-14T15:42:59.810Z,1.00
2018-04-14T15:45:27.281Z,0.75
2018-04-14T15:47:54.777Z,0.80
2018-04-14T15:50:22.259Z,0.70
2018-04-14T15:52:49.821Z,0.93
2018-04-14T15:55:17.365Z,0.87
2018-04-14T15:57:44.918Z,0.90
2018-04-14T16:00:12.466Z,1.27
2018-04-14T16:02:39.948Z,0.83
2018-04-14T16:05:07.444Z,1.00
2018-04-14T16:07:34.938Z,1.10
2018-04-14T16:10:02.486Z,0.73
2018-04-14T16:12:31.095Z,0.90
2018-04-14T16:14:59.050Z,0.80
2018-04-14T16:17:26.575Z,1.03
2018-04-14T16:19:54.062Z,1.00
2018-04-14T16:22:21.560Z,1.00
2018-04-14T16:24:49.655Z,0.87
2018-04-14T16:27:17.177Z,1.00
2018-04-14T16:29:44.678Z,0.70
2018-04-14T16:32:12.176Z,1.10
2018-04-14T16:34:39.677Z,1.03
2018-04-14T16:37:07.287Z,1.03
2018-04-14T16:39:34.763Z,1.20
2018-04-14T16:42:02.314Z,1.37
2018-04-14T16:44:31.056Z,0.97
2018-04-14T16:46:58.575Z,1.20
2018-04-14T16:49:26.106Z,1.40
2018-04-14T16:51:53.662Z,1.43
2018-04-14T16:54:21.920Z,1.33
2018-04-14T16:56:49.422Z,1.30
2018-04-14T16:59:16.899Z,1.40
2018-04-14T17:01:44.391Z,1.50
2018-04-14T17:04:11.859Z,1.20
2018-04-14T17:06:39.391Z,1.60
2018-04-14T17:09:07.682Z,1.30
2018-04-14T17:11:35.158Z,1.60
2018-04-14T17:14:02.695Z,1.30
2018-04-14T17:16:30.264Z,1.93
2018-04-14T17:18:57.793Z,1.37
2018-04-14T17:21:25.391Z,1.70
2018-04-14T17:23:53.077Z,1.80
2018-04-14T17:26:20.571Z,1.67
2018-04-14T17:28:49.011Z,1.43
2018-04-14T17:33:57.293Z,1.83
2018-04-14T17:36:25.639Z,1.80
2018-04-14T17:38:53.203Z,2.23
2018-04-14T17:41:20.742Z,2.10
2018-04-14T17:43:48.282Z,1.67
2018-04-14T17:46:16.218Z,1.80
2018-04-14T17:48:43.786Z,2.07
2018-04-14T17:51:11.294Z,1.83
2018-04-14T17:53:38.805Z,2.03
2018-04-14T17:56:06.315Z,2.30
2018-04-14T17:58:33.826Z,2.20
2018-04-14T18:01:01.424Z,2.20
2018-04-14T18:03:28.920Z,2.37
2018-04-14T18:05:56.430Z,2.70
2018-04-14T18:08:23.942Z,2.43
2018-04-14T18:10:51.453Z,2.40
2018-04-14T18:13:19.560Z,3.10
2018-04-14T18:15:47.145Z,3.10
2018-04-14T18:18:14.660Z,2.90
2018-04-14T18:20:42.144Z,3.53
2018-04-14T18:23:09.679Z,2.80
2018-04-14T18:25:37.180Z,2.03
2018-04-14T18:28:04.671Z,3.03
2018-04-14T18:30:32.175Z,3.03
2018-04-14T18:32:59.717Z,2.90
2018-04-14T18:35:27.306Z,3.33
2018-04-14T18:38:02.242Z,3.30
2018-04-14T18:40:29.827Z,3.33
2018-04-14T18:42:57.387Z,3.50
2018-04-14T18:45:25.102Z,3.40
2018-04-14T18:47:53.606Z,2.90
2018-04-14T18:50:21.502Z,3.73
2018-04-14T18:52:49.034Z,2.60
2018-04-14T18:55:19.962Z,2.63
2018-04-14T18:57:48.031Z,2.63
2018-04-14T19:00:15.584Z,2.67
2018-04-14T19:02:44.435Z,2.73
2018-04-14T19:05:12.116Z,2.47
2018-04-14T19:10:13.108Z,2.87
2018-04-14T19:12:41.779Z,2.50
2018-04-14T19:15:09.331Z,2.50
2018-04-14T19:17:36.833Z,2.07
2018-04-14T19:20:04.764Z,2.00
2018-04-14T19:22:32.276Z,2.67
2018-04-14T19:27:31.678Z,2.70
2018-04-14T19:29:59.958Z,2.60
2018-04-14T19:32:27.743Z,2.30
2018-04-14T19:34:55.306Z,2.50
2018-04-14T19:37:22.808Z,2.10
2018-04-14T19:39:50.380Z,2.40
2018-04-14T19:42:17.889Z,2.30
2018-04-14T19:44:45.375Z,2.47
2018-04-14T19:47:12.852Z,2.80
2018-04-14T19:49:40.338Z,2.50
2018-04-14T19:52:07.848Z,3.10
2018-04-14T19:54:35.381Z,2.80
2018-04-14T19:57:02.852Z,2.60
2018-04-14T19:59:30.373Z,2.63
2018-04-14T20:01:57.870Z,2.40
2018-04-14T20:04:25.391Z,2.60
2018-04-14T20:06:52.880Z,3.90
2018-04-14T20:09:20.483Z,3.20
2018-04-14T20:11:47.987Z,2.87
2018-04-14T20:14:16.820Z,2.57
2018-04-14T20:16:44.316Z,3.20
2018-04-14T20:19:12.671Z,2.63
2018-04-14T20:21:40.429Z,3.17
2018-04-14T20:24:08.030Z,3.23
2018-04-14T20:26:35.545Z,3.30
2018-04-14T20:29:04.687Z,3.37
2018-04-14T20:31:32.216Z,3.73
2018-04-14T20:33:59.698Z,4.80
2018-04-14T20:36:27.238Z,4.40
2018-04-14T20:38:54.771Z,5.80
2018-04-14T20:41:24.730Z,5.93
2018-04-14T20:43:52.323Z,5.37
2018-04-14T20:46:19.852Z,5.47
2018-04-14T20:48:47.385Z,5.20
2018-04-14T20:51:14.907Z,5.40
2018-04-14T20:53:42.425Z,3.93
2018-04-14T20:56:11.626Z,3.80
2018-04-14T20:58:39.347Z,5.20
2018-04-14T21:01:06.892Z,5.43
2018-04-14T21:03:34.368Z,6.07
2018-04-14T21:06:01.909Z,5.60
2018-04-14T21:08:29.413Z,4.83
2018-04-14T21:11:02.879Z,4.90
2018-04-14T21:13:30.442Z,6.47
2018-04-14T21:15:57.947Z,5.87
2018-04-14T21:18:26.870Z,5.10
2018-04-14T21:20:54.762Z,5.80
2018-04-14T21:23:22.409Z,4.50
2018-04-14T21:25:49.915Z,5.70
2018-04-14T21:28:17.681Z,5.67
2018-04-14T21:30:46.329Z,5.57
2018-04-14T21:33:15.619Z,4.90
2018-04-14T21:35:43.204Z,5.90
2018-04-14T21:38:10.697Z,5.93
2018-04-14T21:40:38.225Z,4.40
2018-04-14T21:43:05.912Z,4.47
2018-04-14T21:45:33.686Z,4.33
2018-04-14T21:48:01.223Z,4.77
2018-04-14T21:50:30.261Z,4.20
2018-04-14T21:52:57.806Z,4.67
2018-04-14T21:55:25.363Z,4.30
2018-04-14T21:57:53.028Z,4.90
2018-04-14T22:00:20.566Z,4.10
2018-04-14T22:02:48.152Z,5.10
2018-04-14T22:05:15.823Z,4.87
2018-04-14T22:07:43.523Z,4.50
2018-04-14T22:10:11.188Z,4.73
2018-04-14T22:12:38.900Z,5.10
2018-04-14T22:15:06.426Z,4.00
2018-04-14T22:17:34.249Z,4.00
2018-04-14T22:20:01.794Z,4.23
2018-04-14T22:22:29.361Z,4.40
2018-04-14T22:24:57.689Z,5.10
2018-04-14T22:27:25.220Z,4.23
2018-04-14T22:29:52.703Z,4.43
2018-04-14T22:32:20.201Z,4.37
2018-04-14T22:34:48.630Z,4.30
2018-04-14T22:37:17.334Z,5.07
2018-04-14T22:39:44.841Z,4.43
2018-04-14T22:42:13.245Z,4.60
2018-04-14T22:44:40.706Z,4.73
2018-04-14T22:47:08.200Z,5.27
2018-04-14T22:49:35.713Z,5.80
2018-04-14T22:52:03.200Z,5.30
2018-04-14T22:54:30.691Z,5.43
2018-04-14T22:56:59.134Z,4.93
2018-04-14T22:59:26.635Z,5.07
2018-04-14T23:01:54.109Z,4.17
2018-04-14T23:04:21.561Z,3.90
2018-04-14T23:06:49.023Z,3.70
2018-04-14T23:09:16.515Z,4.47
2018-04-14T23:11:44.013Z,3.57
2018-04-14T23:14:11.503Z,4.17
2018-04-14T23:16:39.035Z,4.33
2018-04-14T23:19:06.565Z,4.40
2018-04-14T23:21:34.079Z,4.70
2018-04-14T23:24:01.543Z,4.67
2018-04-14T23:26:29.039Z,4.70
2018-04-14T23:28:56.534Z,5.63
2018-04-14T23:31:24.146Z,5.20
2018-04-14T23:33:51.687Z,5.47
2018-04-14T23:36:19.198Z,5.10
2018-04-14T23:38:46.722Z,5.43
2018-04-14T23:41:14.310Z,4.90
2018-04-14T23:43:41.883Z,5.53
2018-04-14T23:46:09.516Z,4.97
2018-04-14T23:51:08.877Z,7.73
2018-04-14T23:53:36.446Z,5.60
2018-04-14T23:56:03.995Z,5.73
2018-04-14T23:58:31.535Z,5.67
